NCAR-RAP Real-Time Weather Data

Output produced by METARs form (24 January 2022  23:26 UTC)
found at http://weather.rap.ucar.edu/surface/
 
KCHA 242253Z 17007KT 10SM FEW140 SCT250 13/M01 A2985 RMK AO2 SLP109 T01281011
KCHA 242153Z 17010G17KT 10SM FEW140 FEW250 14/M02 A2983 RMK AO2 SLP101 T01441017
KCHA 242053Z 17009KT 10SM FEW140 SCT250 15/M02 A2982 RMK AO2 SLP100 T01501017 56029
KCHA 241953Z 23006KT 10SM FEW100 14/M02 A2985 RMK AO2 SLP108 T01441022
KCHA 241853Z 17007KT 10SM CLR 13/M02 A2987 RMK AO2 SLP116 T01331017
KCHA 241753Z 19007KT 10SM CLR 12/M02 A2991 RMK AO2 SLP129 T01171017 10117 21033 58018
KCHA 241653Z 20006KT 10SM CLR 09/M02 A2995 RMK AO2 SLP145 T00891022
KCHA 241553Z 20005KT 10SM FEW250 06/M03 A2997 RMK AO2 SLP153 T00561028
KCHA 241453Z 00000KT 10SM FEW250 03/M03 A2996 RMK AO2 SLP150 T00281028 58001
KCHA 241353Z 00000KT 10SM FEW250 M01/M03 A2998 RMK AO2 SLP155 T10111033